sensor_id;sensor_type;location;lat;lon;timestamp;P1;durP1;ratioP1;P2;durP2;ratioP2
49842;SDS011;55559;48.898;9.184;2023-02-28T00:01:20;3.15;;;0.60;;
49842;SDS011;55559;48.898;9.184;2023-02-28T00:03:47;4.13;;;0.80;;
49842;SDS011;55559;48.898;9.184;2023-02-28T00:06:15;2.13;;;0.70;;
49842;SDS011;55559;48.898;9.184;2023-02-28T00:08:44;2.10;;;1.00;;
49842;SDS011;55559;48.898;9.184;2023-02-28T00:11:13;3.88;;;0.70;;
49842;SDS011;55559;48.898;9.184;2023-02-28T00:13:41;2.58;;;0.70;;
49842;SDS011;55559;48.898;9.184;2023-02-28T00:16:13;3.90;;;0.73;;
49842;SDS011;55559;48.898;9.184;2023-02-28T00:18:42;4.05;;;0.80;;
49842;SDS011;55559;48.898;9.184;2023-02-28T00:21:09;4.90;;;0.70;;
49842;SDS011;55559;48.898;9.184;2023-02-28T00:23:37;4.00;;;1.00;;
49842;SDS011;55559;48.898;9.184;2023-02-28T00:26:06;6.40;;;0.82;;
49842;SDS011;55559;48.898;9.184;2023-02-28T00:28:33;4.22;;;0.80;;
49842;SDS011;55559;48.898;9.184;2023-02-28T00:31:02;4.97;;;1.48;;
49842;SDS011;55559;48.898;9.184;2023-02-28T00:33:30;2.50;;;0.60;;
49842;SDS011;55559;48.898;9.184;2023-02-28T00:36:01;2.63;;;1.08;;
49842;SDS011;55559;48.898;9.184;2023-02-28T00:38:35;3.25;;;0.90;;
49842;SDS011;55559;48.898;9.184;2023-02-28T00:41:03;1.90;;;0.80;;
49842;SDS011;55559;48.898;9.184;2023-02-28T00:43:33;2.65;;;0.80;;
49842;SDS011;55559;48.898;9.184;2023-02-28T00:46:02;3.28;;;0.93;;
49842;SDS011;55559;48.898;9.184;2023-02-28T00:48:30;3.05;;;1.17;;
49842;SDS011;55559;48.898;9.184;2023-02-28T00:50:58;4.43;;;1.13;;
49842;SDS011;55559;48.898;9.184;2023-02-28T00:53:26;5.85;;;1.10;;
49842;SDS011;55559;48.898;9.184;2023-02-28T00:55:56;1.73;;;0.80;;
49842;SDS011;55559;48.898;9.184;2023-02-28T00:58:25;3.42;;;0.80;;
49842;SDS011;55559;48.898;9.184;2023-02-28T01:00:54;3.08;;;0.85;;
49842;SDS011;55559;48.898;9.184;2023-02-28T01:03:22;4.45;;;1.20;;
49842;SDS011;55559;48.898;9.184;2023-02-28T01:05:49;4.97;;;1.00;;
49842;SDS011;55559;48.898;9.184;2023-02-28T01:08:18;4.97;;;0.98;;
49842;SDS011;55559;48.898;9.184;2023-02-28T01:10:46;4.55;;;1.00;;
49842;SDS011;55559;48.898;9.184;2023-02-28T01:13:14;4.30;;;1.27;;
49842;SDS011;55559;48.898;9.184;2023-02-28T01:15:43;2.53;;;1.10;;
49842;SDS011;55559;48.898;9.184;2023-02-28T01:18:17;3.58;;;0.85;;
49842;SDS011;55559;48.898;9.184;2023-02-28T01:20:46;4.28;;;0.93;;
49842;SDS011;55559;48.898;9.184;2023-02-28T01:23:15;2.30;;;1.00;;
49842;SDS011;55559;48.898;9.184;2023-02-28T01:25:42;4.50;;;0.93;;
49842;SDS011;55559;48.898;9.184;2023-02-28T01:28:10;5.85;;;1.48;;
49842;SDS011;55559;48.898;9.184;2023-02-28T01:30:37;6.90;;;1.30;;
49842;SDS011;55559;48.898;9.184;2023-02-28T01:33:05;9.65;;;1.20;;
49842;SDS011;55559;48.898;9.184;2023-02-28T01:35:34;3.67;;;1.20;;
49842;SDS011;55559;48.898;9.184;2023-02-28T01:38:02;5.15;;;1.25;;
49842;SDS011;55559;48.898;9.184;2023-02-28T01:40:30;3.28;;;1.00;;
49842;SDS011;55559;48.898;9.184;2023-02-28T01:42:57;4.75;;;1.45;;
49842;SDS011;55559;48.898;9.184;2023-02-28T01:45:26;4.68;;;1.52;;
49842;SDS011;55559;48.898;9.184;2023-02-28T01:47:55;2.63;;;0.73;;
49842;SDS011;55559;48.898;9.184;2023-02-28T01:50:27;5.68;;;1.48;;
49842;SDS011;55559;48.898;9.184;2023-02-28T01:52:59;2.33;;;0.80;;
49842;SDS011;55559;48.898;9.184;2023-02-28T01:55:31;7.75;;;1.55;;
49842;SDS011;55559;48.898;9.184;2023-02-28T01:58:00;3.35;;;1.42;;
49842;SDS011;55559;48.898;9.184;2023-02-28T02:00:30;3.05;;;1.08;;
49842;SDS011;55559;48.898;9.184;2023-02-28T02:02:58;3.80;;;1.02;;
49842;SDS011;55559;48.898;9.184;2023-02-28T02:05:28;7.07;;;1.35;;
49842;SDS011;55559;48.898;9.184;2023-02-28T02:08:04;1.90;;;1.02;;
49842;SDS011;55559;48.898;9.184;2023-02-28T02:10:38;5.43;;;1.52;;
49842;SDS011;55559;48.898;9.184;2023-02-28T02:13:18;4.60;;;1.40;;
49842;SDS011;55559;48.898;9.184;2023-02-28T02:16:10;3.80;;;1.27;;
49842;SDS011;55559;48.898;9.184;2023-02-28T02:18:46;4.57;;;1.60;;
49842;SDS011;55559;48.898;9.184;2023-02-28T02:27:23;3.43;;;1.30;;
49842;SDS011;55559;48.898;9.184;2023-02-28T02:30:17;5.43;;;1.27;;
49842;SDS011;55559;48.898;9.184;2023-02-28T02:36:19;4.35;;;1.20;;
49842;SDS011;55559;48.898;9.184;2023-02-28T02:38:51;3.30;;;1.00;;
49842;SDS011;55559;48.898;9.184;2023-02-28T02:41:27;10.68;;;1.45;;
49842;SDS011;55559;48.898;9.184;2023-02-28T02:44:05;3.05;;;1.17;;
49842;SDS011;55559;48.898;9.184;2023-02-28T02:46:39;4.82;;;1.00;;
49842;SDS011;55559;48.898;9.184;2023-02-28T02:49:11;4.82;;;1.67;;
49842;SDS011;55559;48.898;9.184;2023-02-28T02:51:43;5.38;;;1.33;;
49842;SDS011;55559;48.898;9.184;2023-02-28T02:54:13;4.38;;;1.95;;
49842;SDS011;55559;48.898;9.184;2023-02-28T02:56:45;7.10;;;1.52;;
49842;SDS011;55559;48.898;9.184;2023-02-28T02:59:16;5.78;;;1.30;;
49842;SDS011;55559;48.898;9.184;2023-02-28T03:01:48;2.33;;;1.10;;
49842;SDS011;55559;48.898;9.184;2023-02-28T03:04:19;3.17;;;1.17;;
49842;SDS011;55559;48.898;9.184;2023-02-28T03:06:51;3.30;;;1.45;;
49842;SDS011;55559;48.898;9.184;2023-02-28T03:09:20;3.38;;;1.33;;
49842;SDS011;55559;48.898;9.184;2023-02-28T03:11:48;4.45;;;1.40;;
49842;SDS011;55559;48.898;9.184;2023-02-28T03:14:30;7.07;;;1.52;;
49842;SDS011;55559;48.898;9.184;2023-02-28T03:17:17;4.15;;;1.30;;
49842;SDS011;55559;48.898;9.184;2023-02-28T03:20:04;6.13;;;1.83;;
49842;SDS011;55559;48.898;9.184;2023-02-28T03:22:48;7.57;;;1.88;;
49842;SDS011;55559;48.898;9.184;2023-02-28T03:25:29;4.35;;;1.40;;
49842;SDS011;55559;48.898;9.184;2023-02-28T03:28:06;9.05;;;1.80;;
49842;SDS011;55559;48.898;9.184;2023-02-28T03:30:41;4.40;;;1.58;;
49842;SDS011;55559;48.898;9.184;2023-02-28T03:33:12;3.80;;;1.60;;
49842;SDS011;55559;48.898;9.184;2023-02-28T03:35:45;3.95;;;2.15;;
49842;SDS011;55559;48.898;9.184;2023-02-28T03:38:19;3.22;;;1.70;;
49842;SDS011;55559;48.898;9.184;2023-02-28T03:43:22;6.30;;;1.27;;
49842;SDS011;55559;48.898;9.184;2023-02-28T03:45:53;5.82;;;1.65;;
49842;SDS011;55559;48.898;9.184;2023-02-28T03:48:23;3.95;;;1.52;;
49842;SDS011;55559;48.898;9.184;2023-02-28T03:50:57;6.10;;;2.03;;
49842;SDS011;55559;48.898;9.184;2023-02-28T03:53:28;5.97;;;1.98;;
49842;SDS011;55559;48.898;9.184;2023-02-28T03:55:59;4.72;;;2.05;;
49842;SDS011;55559;48.898;9.184;2023-02-28T03:58:35;7.30;;;2.75;;
49842;SDS011;55559;48.898;9.184;2023-02-28T04:01:09;5.47;;;2.20;;
49842;SDS011;55559;48.898;9.184;2023-02-28T04:03:42;5.85;;;2.40;;
49842;SDS011;55559;48.898;9.184;2023-02-28T04:06:13;4.95;;;1.90;;
49842;SDS011;55559;48.898;9.184;2023-02-28T04:08:45;8.32;;;3.55;;
49842;SDS011;55559;48.898;9.184;2023-02-28T04:11:16;3.72;;;1.98;;
49842;SDS011;55559;48.898;9.184;2023-02-28T04:13:48;6.38;;;2.40;;
49842;SDS011;55559;48.898;9.184;2023-02-28T04:16:16;7.78;;;2.58;;
49842;SDS011;55559;48.898;9.184;2023-02-28T04:18:44;5.07;;;1.65;;
49842;SDS011;55559;48.898;9.184;2023-02-28T04:21:12;10.38;;;2.45;;
49842;SDS011;55559;48.898;9.184;2023-02-28T04:23:40;7.45;;;2.40;;
49842;SDS011;55559;48.898;9.184;2023-02-28T04:26:09;7.53;;;2.05;;
49842;SDS011;55559;48.898;9.184;2023-02-28T04:28:37;4.63;;;2.22;;
49842;SDS011;55559;48.898;9.184;2023-02-28T04:31:04;9.35;;;3.10;;
49842;SDS011;55559;48.898;9.184;2023-02-28T04:33:32;5.65;;;2.35;;
49842;SDS011;55559;48.898;9.184;2023-02-28T04:36:00;9.82;;;2.33;;
49842;SDS011;55559;48.898;9.184;2023-02-28T04:38:29;5.10;;;2.08;;
49842;SDS011;55559;48.898;9.184;2023-02-28T04:40:59;4.13;;;1.73;;
49842;SDS011;55559;48.898;9.184;2023-02-28T04:43:28;3.88;;;1.83;;
49842;SDS011;55559;48.898;9.184;2023-02-28T04:45:57;7.18;;;2.47;;
49842;SDS011;55559;48.898;9.184;2023-02-28T04:48:28;3.92;;;2.15;;
49842;SDS011;55559;48.898;9.184;2023-02-28T04:50:59;6.40;;;2.13;;
49842;SDS011;55559;48.898;9.184;2023-02-28T04:53:27;4.60;;;2.00;;
49842;SDS011;55559;48.898;9.184;2023-02-28T04:55:55;4.57;;;2.30;;
49842;SDS011;55559;48.898;9.184;2023-02-28T04:58:23;9.57;;;2.88;;
49842;SDS011;55559;48.898;9.184;2023-02-28T05:00:52;4.55;;;2.10;;
49842;SDS011;55559;48.898;9.184;2023-02-28T05:03:20;4.63;;;2.25;;
49842;SDS011;55559;48.898;9.184;2023-02-28T05:05:48;8.43;;;2.75;;
49842;SDS011;55559;48.898;9.184;2023-02-28T05:08:15;4.78;;;1.90;;
49842;SDS011;55559;48.898;9.184;2023-02-28T05:10:43;5.93;;;2.65;;
49842;SDS011;55559;48.898;9.184;2023-02-28T05:13:11;7.32;;;2.53;;
49842;SDS011;55559;48.898;9.184;2023-02-28T05:15:39;4.75;;;2.50;;
49842;SDS011;55559;48.898;9.184;2023-02-28T05:18:09;5.85;;;2.30;;
49842;SDS011;55559;48.898;9.184;2023-02-28T05:20:36;7.95;;;2.85;;
49842;SDS011;55559;48.898;9.184;2023-02-28T05:23:04;7.68;;;2.50;;
49842;SDS011;55559;48.898;9.184;2023-02-28T05:25:31;6.57;;;2.20;;
49842;SDS011;55559;48.898;9.184;2023-02-28T05:27:59;3.15;;;1.75;;
49842;SDS011;55559;48.898;9.184;2023-02-28T05:30:26;6.47;;;2.78;;
49842;SDS011;55559;48.898;9.184;2023-02-28T05:32:55;7.57;;;2.55;;
49842;SDS011;55559;48.898;9.184;2023-02-28T05:35:24;7.68;;;2.85;;
49842;SDS011;55559;48.898;9.184;2023-02-28T05:37:52;5.32;;;2.92;;
49842;SDS011;55559;48.898;9.184;2023-02-28T05:40:19;5.63;;;3.08;;
49842;SDS011;55559;48.898;9.184;2023-02-28T05:42:47;5.50;;;2.90;;
49842;SDS011;55559;48.898;9.184;2023-02-28T05:45:17;7.10;;;2.85;;
49842;SDS011;55559;48.898;9.184;2023-02-28T05:47:44;8.50;;;3.05;;
49842;SDS011;55559;48.898;9.184;2023-02-28T05:50:12;3.78;;;2.20;;
49842;SDS011;55559;48.898;9.184;2023-02-28T05:52:41;8.77;;;3.30;;
49842;SDS011;55559;48.898;9.184;2023-02-28T05:55:08;8.52;;;2.88;;
49842;SDS011;55559;48.898;9.184;2023-02-28T05:57:36;6.80;;;3.28;;
49842;SDS011;55559;48.898;9.184;2023-02-28T06:00:04;6.30;;;3.28;;
49842;SDS011;55559;48.898;9.184;2023-02-28T06:02:38;5.07;;;2.38;;
49842;SDS011;55559;48.898;9.184;2023-02-28T06:05:07;11.25;;;3.30;;
49842;SDS011;55559;48.898;9.184;2023-02-28T06:07:41;6.90;;;3.35;;
49842;SDS011;55559;48.898;9.184;2023-02-28T06:10:09;11.45;;;3.20;;
49842;SDS011;55559;48.898;9.184;2023-02-28T06:12:37;8.07;;;3.15;;
49842;SDS011;55559;48.898;9.184;2023-02-28T06:15:07;6.05;;;2.70;;
49842;SDS011;55559;48.898;9.184;2023-02-28T06:17:38;8.88;;;3.58;;
49842;SDS011;55559;48.898;9.184;2023-02-28T06:20:06;9.50;;;3.60;;
49842;SDS011;55559;48.898;9.184;2023-02-28T06:22:35;5.85;;;3.00;;
49842;SDS011;55559;48.898;9.184;2023-02-28T06:25:04;18.98;;;3.42;;
49842;SDS011;55559;48.898;9.184;2023-02-28T06:27:33;6.50;;;3.28;;
49842;SDS011;55559;48.898;9.184;2023-02-28T06:30:01;5.97;;;3.15;;
49842;SDS011;55559;48.898;9.184;2023-02-28T06:32:29;7.38;;;3.65;;
49842;SDS011;55559;48.898;9.184;2023-02-28T06:34:56;6.95;;;3.35;;
49842;SDS011;55559;48.898;9.184;2023-02-28T06:37:24;9.82;;;4.15;;
49842;SDS011;55559;48.898;9.184;2023-02-28T06:39:53;5.40;;;2.92;;
49842;SDS011;55559;48.898;9.184;2023-02-28T06:42:23;8.95;;;3.92;;
49842;SDS011;55559;48.898;9.184;2023-02-28T06:44:54;5.78;;;3.40;;
49842;SDS011;55559;48.898;9.184;2023-02-28T06:47:22;5.70;;;3.55;;
49842;SDS011;55559;48.898;9.184;2023-02-28T06:49:50;5.43;;;3.00;;
49842;SDS011;55559;48.898;9.184;2023-02-28T06:52:17;6.30;;;3.70;;
49842;SDS011;55559;48.898;9.184;2023-02-28T06:54:45;6.10;;;3.38;;
49842;SDS011;55559;48.898;9.184;2023-02-28T06:57:12;9.50;;;3.58;;
49842;SDS011;55559;48.898;9.184;2023-02-28T06:59:41;9.27;;;3.28;;
49842;SDS011;55559;48.898;9.184;2023-02-28T07:02:09;7.60;;;3.97;;
49842;SDS011;55559;48.898;9.184;2023-02-28T07:04:36;7.82;;;4.35;;
49842;SDS011;55559;48.898;9.184;2023-02-28T07:07:05;6.65;;;3.58;;
49842;SDS011;55559;48.898;9.184;2023-02-28T07:09:33;10.57;;;3.13;;
49842;SDS011;55559;48.898;9.184;2023-02-28T07:12:00;9.50;;;4.45;;
49842;SDS011;55559;48.898;9.184;2023-02-28T07:14:28;8.13;;;3.80;;
49842;SDS011;55559;48.898;9.184;2023-02-28T07:16:56;10.15;;;4.32;;
49842;SDS011;55559;48.898;9.184;2023-02-28T07:19:24;7.10;;;3.92;;
49842;SDS011;55559;48.898;9.184;2023-02-28T07:21:52;9.25;;;3.83;;
49842;SDS011;55559;48.898;9.184;2023-02-28T07:24:19;11.75;;;4.20;;
49842;SDS011;55559;48.898;9.184;2023-02-28T07:26:49;9.02;;;3.78;;
49842;SDS011;55559;48.898;9.184;2023-02-28T07:29:16;7.18;;;4.43;;
49842;SDS011;55559;48.898;9.184;2023-02-28T07:31:44;13.50;;;4.03;;
49842;SDS011;55559;48.898;9.184;2023-02-28T07:34:13;10.55;;;4.13;;
49842;SDS011;55559;48.898;9.184;2023-02-28T07:36:41;5.15;;;3.08;;
49842;SDS011;55559;48.898;9.184;2023-02-28T07:39:08;10.10;;;4.25;;
49842;SDS011;55559;48.898;9.184;2023-02-28T07:41:36;13.43;;;4.15;;
49842;SDS011;55559;48.898;9.184;2023-02-28T07:44:09;7.13;;;3.67;;
49842;SDS011;55559;48.898;9.184;2023-02-28T07:46:36;15.63;;;4.32;;
49842;SDS011;55559;48.898;9.184;2023-02-28T07:49:04;8.35;;;4.05;;
49842;SDS011;55559;48.898;9.184;2023-02-28T07:51:33;10.38;;;4.50;;
49842;SDS011;55559;48.898;9.184;2023-02-28T07:54:01;12.05;;;4.25;;
49842;SDS011;55559;48.898;9.184;2023-02-28T07:56:28;21.05;;;5.20;;
49842;SDS011;55559;48.898;9.184;2023-02-28T07:58:56;7.47;;;4.50;;
49842;SDS011;55559;48.898;9.184;2023-02-28T08:01:23;11.55;;;4.63;;
49842;SDS011;55559;48.898;9.184;2023-02-28T08:03:51;10.00;;;4.75;;
49842;SDS011;55559;48.898;9.184;2023-02-28T08:06:20;7.88;;;4.00;;
49842;SDS011;55559;48.898;9.184;2023-02-28T08:08:50;22.38;;;4.60;;
49842;SDS011;55559;48.898;9.184;2023-02-28T08:11:19;9.80;;;4.22;;
49842;SDS011;55559;48.898;9.184;2023-02-28T08:13:46;11.07;;;4.95;;
49842;SDS011;55559;48.898;9.184;2023-02-28T08:16:14;11.23;;;5.30;;
49842;SDS011;55559;48.898;9.184;2023-02-28T08:18:47;18.30;;;4.70;;
49842;SDS011;55559;48.898;9.184;2023-02-28T08:21:15;10.65;;;4.95;;
49842;SDS011;55559;48.898;9.184;2023-02-28T08:23:43;8.75;;;4.75;;
49842;SDS011;55559;48.898;9.184;2023-02-28T08:26:11;9.90;;;4.80;;
49842;SDS011;55559;48.898;9.184;2023-02-28T08:28:39;13.32;;;5.00;;
49842;SDS011;55559;48.898;9.184;2023-02-28T08:31:07;9.88;;;4.63;;
49842;SDS011;55559;48.898;9.184;2023-02-28T08:33:36;14.75;;;5.28;;
49842;SDS011;55559;48.898;9.184;2023-02-28T08:36:04;14.02;;;4.53;;
49842;SDS011;55559;48.898;9.184;2023-02-28T08:38:33;12.70;;;5.30;;
49842;SDS011;55559;48.898;9.184;2023-02-28T08:41:02;10.77;;;5.60;;
49842;SDS011;55559;48.898;9.184;2023-02-28T08:43:34;10.35;;;5.35;;
49842;SDS011;55559;48.898;9.184;2023-02-28T08:46:02;10.95;;;5.80;;
49842;SDS011;55559;48.898;9.184;2023-02-28T08:48:31;16.17;;;5.55;;
49842;SDS011;55559;48.898;9.184;2023-02-28T08:51:03;11.93;;;5.57;;
49842;SDS011;55559;48.898;9.184;2023-02-28T08:53:32;10.32;;;6.40;;
49842;SDS011;55559;48.898;9.184;2023-02-28T08:56:00;11.45;;;6.28;;
49842;SDS011;55559;48.898;9.184;2023-02-28T08:58:29;10.38;;;5.60;;
49842;SDS011;55559;48.898;9.184;2023-02-28T09:00:59;17.00;;;6.13;;
49842;SDS011;55559;48.898;9.184;2023-02-28T09:03:26;12.43;;;6.30;;
49842;SDS011;55559;48.898;9.184;2023-02-28T09:05:54;18.75;;;6.72;;
49842;SDS011;55559;48.898;9.184;2023-02-28T09:08:23;12.23;;;5.75;;
49842;SDS011;55559;48.898;9.184;2023-02-28T09:10:51;9.90;;;5.25;;
49842;SDS011;55559;48.898;9.184;2023-02-28T09:13:19;13.27;;;5.28;;
49842;SDS011;55559;48.898;9.184;2023-02-28T09:15:47;11.88;;;5.97;;
49842;SDS011;55559;48.898;9.184;2023-02-28T09:18:16;12.20;;;4.72;;
49842;SDS011;55559;48.898;9.184;2023-02-28T09:20:43;12.77;;;6.03;;
49842;SDS011;55559;48.898;9.184;2023-02-28T09:23:11;11.75;;;6.70;;
49842;SDS011;55559;48.898;9.184;2023-02-28T09:25:44;12.32;;;6.38;;
49842;SDS011;55559;48.898;9.184;2023-02-28T09:28:13;17.27;;;5.65;;
49842;SDS011;55559;48.898;9.184;2023-02-28T09:30:42;10.70;;;5.30;;
49842;SDS011;55559;48.898;9.184;2023-02-28T09:33:11;12.50;;;6.70;;
49842;SDS011;55559;48.898;9.184;2023-02-28T09:35:40;12.93;;;5.70;;
49842;SDS011;55559;48.898;9.184;2023-02-28T09:38:09;12.13;;;6.00;;
49842;SDS011;55559;48.898;9.184;2023-02-28T09:40:37;15.52;;;5.93;;
49842;SDS011;55559;48.898;9.184;2023-02-28T09:43:12;11.77;;;5.90;;
49842;SDS011;55559;48.898;9.184;2023-02-28T09:45:44;9.48;;;5.95;;
49842;SDS011;55559;48.898;9.184;2023-02-28T09:48:17;10.65;;;5.40;;
49842;SDS011;55559;48.898;9.184;2023-02-28T09:50:50;8.30;;;5.78;;
49842;SDS011;55559;48.898;9.184;2023-02-28T09:53:21;12.32;;;6.18;;
49842;SDS011;55559;48.898;9.184;2023-02-28T09:55:54;9.30;;;5.53;;
49842;SDS011;55559;48.898;9.184;2023-02-28T09:58:28;15.20;;;6.47;;
49842;SDS011;55559;48.898;9.184;2023-02-28T10:01:06;12.05;;;5.22;;
49842;SDS011;55559;48.898;9.184;2023-02-28T10:03:39;10.75;;;6.38;;
49842;SDS011;55559;48.898;9.184;2023-02-28T10:06:13;12.20;;;7.13;;
49842;SDS011;55559;48.898;9.184;2023-02-28T10:08:45;12.98;;;6.57;;
49842;SDS011;55559;48.898;9.184;2023-02-28T10:11:19;13.35;;;6.13;;
49842;SDS011;55559;48.898;9.184;2023-02-28T10:13:53;9.32;;;5.75;;
49842;SDS011;55559;48.898;9.184;2023-02-28T10:16:29;11.88;;;6.65;;
49842;SDS011;55559;48.898;9.184;2023-02-28T10:19:02;15.13;;;6.45;;
49842;SDS011;55559;48.898;9.184;2023-02-28T10:21:35;9.80;;;5.75;;
49842;SDS011;55559;48.898;9.184;2023-02-28T10:24:11;9.57;;;5.75;;
49842;SDS011;55559;48.898;9.184;2023-02-28T10:26:46;12.43;;;6.38;;
49842;SDS011;55559;48.898;9.184;2023-02-28T10:29:15;11.05;;;5.95;;
49842;SDS011;55559;48.898;9.184;2023-02-28T10:31:42;14.13;;;5.28;;
49842;SDS011;55559;48.898;9.184;2023-02-28T10:34:11;8.80;;;5.05;;
49842;SDS011;55559;48.898;9.184;2023-02-28T10:36:41;7.82;;;4.57;;
49842;SDS011;55559;48.898;9.184;2023-02-28T10:42:18;11.15;;;6.03;;
49842;SDS011;55559;48.898;9.184;2023-02-28T10:45:02;13.55;;;6.13;;
49842;SDS011;55559;48.898;9.184;2023-02-28T10:47:33;11.50;;;5.65;;
49842;SDS011;55559;48.898;9.184;2023-02-28T10:50:01;13.95;;;5.57;;
49842;SDS011;55559;48.898;9.184;2023-02-28T10:52:35;12.07;;;7.25;;
49842;SDS011;55559;48.898;9.184;2023-02-28T10:55:18;8.63;;;5.10;;
49842;SDS011;55559;48.898;9.184;2023-02-28T10:57:48;8.52;;;5.13;;
49842;SDS011;55559;48.898;9.184;2023-02-28T11:00:18;11.63;;;5.45;;
49842;SDS011;55559;48.898;9.184;2023-02-28T11:02:47;8.93;;;5.75;;
49842;SDS011;55559;48.898;9.184;2023-02-28T11:05:22;12.70;;;6.70;;
49842;SDS011;55559;48.898;9.184;2023-02-28T11:07:53;12.27;;;5.65;;
49842;SDS011;55559;48.898;9.184;2023-02-28T11:10:23;10.82;;;5.95;;
49842;SDS011;55559;48.898;9.184;2023-02-28T11:12:54;10.98;;;5.65;;
49842;SDS011;55559;48.898;9.184;2023-02-28T11:15:23;12.98;;;6.07;;
49842;SDS011;55559;48.898;9.184;2023-02-28T11:17:53;11.55;;;6.10;;
49842;SDS011;55559;48.898;9.184;2023-02-28T11:20:22;14.00;;;6.53;;
49842;SDS011;55559;48.898;9.184;2023-02-28T11:22:54;9.80;;;5.57;;
49842;SDS011;55559;48.898;9.184;2023-02-28T11:25:24;12.10;;;6.25;;
49842;SDS011;55559;48.898;9.184;2023-02-28T11:27:54;13.00;;;6.10;;
49842;SDS011;55559;48.898;9.184;2023-02-28T11:30:28;10.98;;;5.93;;
49842;SDS011;55559;48.898;9.184;2023-02-28T11:32:59;13.75;;;7.07;;
49842;SDS011;55559;48.898;9.184;2023-02-28T11:35:28;10.15;;;5.68;;
49842;SDS011;55559;48.898;9.184;2023-02-28T11:38:01;10.10;;;5.50;;
49842;SDS011;55559;48.898;9.184;2023-02-28T11:40:31;8.38;;;4.43;;
49842;SDS011;55559;48.898;9.184;2023-02-28T11:43:10;12.65;;;6.05;;
49842;SDS011;55559;48.898;9.184;2023-02-28T11:45:54;13.05;;;6.07;;
49842;SDS011;55559;48.898;9.184;2023-02-28T11:48:33;12.32;;;6.18;;
49842;SDS011;55559;48.898;9.184;2023-02-28T11:51:12;10.65;;;5.38;;
49842;SDS011;55559;48.898;9.184;2023-02-28T11:53:53;10.00;;;5.05;;
49842;SDS011;55559;48.898;9.184;2023-02-28T11:56:31;7.95;;;5.30;;
49842;SDS011;55559;48.898;9.184;2023-02-28T11:59:03;11.13;;;5.68;;
49842;SDS011;55559;48.898;9.184;2023-02-28T12:01:46;12.23;;;6.55;;
49842;SDS011;55559;48.898;9.184;2023-02-28T12:04:30;13.02;;;5.72;;
49842;SDS011;55559;48.898;9.184;2023-02-28T12:07:07;9.05;;;5.88;;
49842;SDS011;55559;48.898;9.184;2023-02-28T12:09:46;10.45;;;6.78;;
49842;SDS011;55559;48.898;9.184;2023-02-28T12:12:27;11.95;;;6.07;;
49842;SDS011;55559;48.898;9.184;2023-02-28T12:15:05;16.23;;;7.25;;
49842;SDS011;55559;48.898;9.184;2023-02-28T12:17:51;16.50;;;5.47;;
49842;SDS011;55559;48.898;9.184;2023-02-28T12:20:33;12.02;;;5.75;;
49842;SDS011;55559;48.898;9.184;2023-02-28T12:23:10;9.50;;;5.32;;
49842;SDS011;55559;48.898;9.184;2023-02-28T12:25:57;14.68;;;8.00;;
49842;SDS011;55559;48.898;9.184;2023-02-28T12:28:31;8.43;;;4.85;;
49842;SDS011;55559;48.898;9.184;2023-02-28T12:33:36;8.63;;;4.57;;
49842;SDS011;55559;48.898;9.184;2023-02-28T12:36:10;12.43;;;5.30;;
49842;SDS011;55559;48.898;9.184;2023-02-28T12:38:44;10.10;;;4.90;;
49842;SDS011;55559;48.898;9.184;2023-02-28T12:41:16;8.43;;;5.15;;
49842;SDS011;55559;48.898;9.184;2023-02-28T12:43:47;7.25;;;5.28;;
49842;SDS011;55559;48.898;9.184;2023-02-28T12:46:19;8.48;;;4.43;;
49842;SDS011;55559;48.898;9.184;2023-02-28T12:48:52;9.38;;;5.35;;
49842;SDS011;55559;48.898;9.184;2023-02-28T12:51:23;8.80;;;4.85;;
49842;SDS011;55559;48.898;9.184;2023-02-28T12:53:58;8.63;;;5.15;;
49842;SDS011;55559;48.898;9.184;2023-02-28T12:56:35;13.55;;;5.82;;
49842;SDS011;55559;48.898;9.184;2023-02-28T12:59:12;8.13;;;5.28;;
49842;SDS011;55559;48.898;9.184;2023-02-28T13:10:48;11.65;;;5.80;;
49842;SDS011;55559;48.898;9.184;2023-02-28T13:13:21;8.20;;;5.43;;
49842;SDS011;55559;48.898;9.184;2023-02-28T13:16:01;9.90;;;5.10;;
49842;SDS011;55559;48.898;9.184;2023-02-28T13:18:32;14.27;;;5.22;;
49842;SDS011;55559;48.898;9.184;2023-02-28T13:21:03;10.55;;;5.60;;
49842;SDS011;55559;48.898;9.184;2023-02-28T13:23:39;9.60;;;5.53;;
49842;SDS011;55559;48.898;9.184;2023-02-28T13:26:32;10.23;;;5.72;;
49842;SDS011;55559;48.898;9.184;2023-02-28T13:29:37;9.20;;;4.90;;
49842;SDS011;55559;48.898;9.184;2023-02-28T13:46:36;11.93;;;5.65;;
49842;SDS011;55559;48.898;9.184;2023-02-28T13:49:42;14.43;;;6.10;;
49842;SDS011;55559;48.898;9.184;2023-02-28T13:52:11;9.30;;;5.88;;
49842;SDS011;55559;48.898;9.184;2023-02-28T13:54:56;9.35;;;4.82;;
49842;SDS011;55559;48.898;9.184;2023-02-28T13:57:38;13.82;;;6.53;;
49842;SDS011;55559;48.898;9.184;2023-02-28T14:00:17;10.50;;;5.15;;
49842;SDS011;55559;48.898;9.184;2023-02-28T14:08:36;7.72;;;4.32;;
49842;SDS011;55559;48.898;9.184;2023-02-28T14:11:05;9.93;;;6.03;;
49842;SDS011;55559;48.898;9.184;2023-02-28T14:13:37;8.27;;;5.88;;
49842;SDS011;55559;48.898;9.184;2023-02-28T14:16:10;11.07;;;5.93;;
49842;SDS011;55559;48.898;9.184;2023-02-28T14:18:42;11.75;;;6.18;;
49842;SDS011;55559;48.898;9.184;2023-02-28T14:21:19;9.02;;;5.95;;
49842;SDS011;55559;48.898;9.184;2023-02-28T14:24:03;5.93;;;4.75;;
49842;SDS011;55559;48.898;9.184;2023-02-28T14:26:55;6.88;;;5.10;;
49842;SDS011;55559;48.898;9.184;2023-02-28T14:32:32;8.30;;;5.72;;
49842;SDS011;55559;48.898;9.184;2023-02-28T14:35:05;9.45;;;5.32;;
49842;SDS011;55559;48.898;9.184;2023-02-28T14:40:14;9.23;;;5.38;;
49842;SDS011;55559;48.898;9.184;2023-02-28T14:42:47;11.55;;;5.25;;
49842;SDS011;55559;48.898;9.184;2023-02-28T14:45:21;9.40;;;5.22;;
49842;SDS011;55559;48.898;9.184;2023-02-28T14:47:50;8.75;;;5.40;;
49842;SDS011;55559;48.898;9.184;2023-02-28T14:50:20;16.88;;;6.80;;
49842;SDS011;55559;48.898;9.184;2023-02-28T14:52:51;13.50;;;6.57;;
49842;SDS011;55559;48.898;9.184;2023-02-28T14:55:22;9.50;;;6.10;;
49842;SDS011;55559;48.898;9.184;2023-02-28T14:57:53;9.48;;;5.57;;
49842;SDS011;55559;48.898;9.184;2023-02-28T15:00:24;7.88;;;4.85;;
49842;SDS011;55559;48.898;9.184;2023-02-28T15:02:53;10.10;;;5.50;;
49842;SDS011;55559;48.898;9.184;2023-02-28T15:05:27;9.57;;;5.90;;
49842;SDS011;55559;48.898;9.184;2023-02-28T15:08:02;9.15;;;5.32;;
49842;SDS011;55559;48.898;9.184;2023-02-28T15:10:32;10.90;;;5.22;;
49842;SDS011;55559;48.898;9.184;2023-02-28T15:13:01;11.40;;;6.28;;
49842;SDS011;55559;48.898;9.184;2023-02-28T15:15:35;8.13;;;5.47;;
49842;SDS011;55559;48.898;9.184;2023-02-28T15:18:11;8.25;;;5.30;;
49842;SDS011;55559;48.898;9.184;2023-02-28T15:20:46;14.30;;;7.07;;
49842;SDS011;55559;48.898;9.184;2023-02-28T15:23:14;10.43;;;6.68;;
49842;SDS011;55559;48.898;9.184;2023-02-28T15:25:42;8.02;;;5.93;;
49842;SDS011;55559;48.898;9.184;2023-02-28T15:28:12;7.50;;;5.85;;
49842;SDS011;55559;48.898;9.184;2023-02-28T15:30:50;14.55;;;6.18;;
49842;SDS011;55559;48.898;9.184;2023-02-28T15:33:23;9.88;;;5.57;;
49842;SDS011;55559;48.898;9.184;2023-02-28T15:36:02;13.60;;;6.72;;
49842;SDS011;55559;48.898;9.184;2023-02-28T15:38:33;10.27;;;6.05;;
49842;SDS011;55559;48.898;9.184;2023-02-28T15:41:01;14.07;;;5.90;;
49842;SDS011;55559;48.898;9.184;2023-02-28T15:43:34;10.55;;;5.80;;
49842;SDS011;55559;48.898;9.184;2023-02-28T15:46:03;15.80;;;6.00;;
49842;SDS011;55559;48.898;9.184;2023-02-28T15:48:33;11.52;;;6.78;;
49842;SDS011;55559;48.898;9.184;2023-02-28T15:51:07;11.07;;;6.57;;
49842;SDS011;55559;48.898;9.184;2023-02-28T15:53:37;11.38;;;7.25;;
49842;SDS011;55559;48.898;9.184;2023-02-28T15:56:12;10.93;;;6.43;;
49842;SDS011;55559;48.898;9.184;2023-02-28T15:58:50;21.00;;;7.43;;
49842;SDS011;55559;48.898;9.184;2023-02-28T16:01:23;15.30;;;6.75;;